sensor_id;sensor_type;location;lat;lon;timestamp;pressure;altitude;pressure_sealevel;temperature;humidity
62201;BME280;48197;42.732;27.192;2022-08-19T00:00:45;99216.63;;;22.73;86.19
62201;BME280;48197;42.732;27.192;2022-08-19T00:03:12;99207.41;;;22.73;85.98
62201;BME280;48197;42.732;27.192;2022-08-19T00:05:38;99217.13;;;22.72;86.27
62201;BME280;48197;42.732;27.192;2022-08-19T00:11:08;99221.50;;;22.73;84.98
62201;BME280;48197;42.732;27.192;2022-08-19T00:13:34;99219.22;;;22.77;84.81
62201;BME280;48197;42.732;27.192;2022-08-19T00:16:02;99222.31;;;22.79;84.27
62201;BME280;48197;42.732;27.192;2022-08-19T00:18:28;99226.94;;;22.82;84.12
62201;BME280;48197;42.732;27.192;2022-08-19T00:23:58;99213.63;;;22.82;84.81
62201;BME280;48197;42.732;27.192;2022-08-19T00:26:27;99210.53;;;22.80;84.96
62201;BME280;48197;42.732;27.192;2022-08-19T00:28:54;99213.06;;;22.78;84.70
62201;BME280;48197;42.732;27.192;2022-08-19T00:31:20;99225.13;;;22.79;84.64
62201;BME280;48197;42.732;27.192;2022-08-19T00:33:47;99218.47;;;22.82;84.33
62201;BME280;48197;42.732;27.192;2022-08-19T00:36:26;99211.84;;;22.85;84.44
62201;BME280;48197;42.732;27.192;2022-08-19T00:38:55;99209.53;;;22.83;84.72
62201;BME280;48197;42.732;27.192;2022-08-19T00:41:30;99204.66;;;22.84;84.07
62201;BME280;48197;42.732;27.192;2022-08-19T00:44:13;99209.53;;;22.83;84.35
62201;BME280;48197;42.732;27.192;2022-08-19T00:46:42;99212.31;;;22.78;84.10
62201;BME280;48197;42.732;27.192;2022-08-19T00:49:41;99209.25;;;22.81;83.68
62201;BME280;48197;42.732;27.192;2022-08-19T00:52:35;99214.66;;;22.85;82.94
62201;BME280;48197;42.732;27.192;2022-08-19T00:54:57;99209.53;;;22.83;83.29
62201;BME280;48197;42.732;27.192;2022-08-19T00:57:35;99209.00;;;22.79;82.76
62201;BME280;48197;42.732;27.192;2022-08-19T01:00:07;99219.22;;;22.77;83.21
62201;BME280;48197;42.732;27.192;2022-08-19T01:02:35;99217.63;;;22.70;83.25
62201;BME280;48197;42.732;27.192;2022-08-19T01:05:03;99218.63;;;22.67;83.38
62201;BME280;48197;42.732;27.192;2022-08-19T01:07:30;99222.72;;;22.66;83.47
62201;BME280;48197;42.732;27.192;2022-08-19T01:12:55;99231.88;;;22.55;83.22
62201;BME280;48197;42.732;27.192;2022-08-19T01:15:23;99227.69;;;22.51;83.58
62201;BME280;48197;42.732;27.192;2022-08-19T01:18:02;99227.69;;;22.45;84.17
62201;BME280;48197;42.732;27.192;2022-08-19T01:20:29;99231.47;;;22.42;84.94
62201;BME280;48197;42.732;27.192;2022-08-19T01:22:58;99234.00;;;22.40;85.01
62201;BME280;48197;42.732;27.192;2022-08-19T01:25:29;99223.75;;;22.37;85.10
62201;BME280;48197;42.732;27.192;2022-08-19T01:27:57;99238.06;;;22.33;85.84
62201;BME280;48197;42.732;27.192;2022-08-19T01:30:30;99231.09;;;22.29;85.42
62201;BME280;48197;42.732;27.192;2022-08-19T01:32:57;99236.72;;;22.29;85.37
62201;BME280;48197;42.732;27.192;2022-08-19T01:35:28;99230.81;;;22.27;85.56
62201;BME280;48197;42.732;27.192;2022-08-19T01:38:00;99226.19;;;22.24;86.50
62201;BME280;48197;42.732;27.192;2022-08-19T01:40:29;99225.63;;;22.19;87.04
62201;BME280;48197;42.732;27.192;2022-08-19T01:42:57;99239.41;;;22.17;86.63
62201;BME280;48197;42.732;27.192;2022-08-19T01:45:25;99228.66;;;22.16;86.45
62201;BME280;48197;42.732;27.192;2022-08-19T01:47:54;99230.41;;;22.13;87.03
62201;BME280;48197;42.732;27.192;2022-08-19T01:50:21;99233.94;;;22.08;87.36
62201;BME280;48197;42.732;27.192;2022-08-19T01:52:48;99228.25;;;22.02;87.06
62201;BME280;48197;42.732;27.192;2022-08-19T01:55:16;99238.19;;;21.98;87.27
62201;BME280;48197;42.732;27.192;2022-08-19T01:57:44;99235.59;;;21.94;87.43
62201;BME280;48197;42.732;27.192;2022-08-19T02:00:13;99237.06;;;21.90;87.23
62201;BME280;48197;42.732;27.192;2022-08-19T02:02:42;99229.31;;;21.85;87.79
62201;BME280;48197;42.732;27.192;2022-08-19T02:05:08;99235.97;;;21.81;87.92
62201;BME280;48197;42.732;27.192;2022-08-19T02:10:39;99234.63;;;21.77;87.13
62201;BME280;48197;42.732;27.192;2022-08-19T02:13:07;99233.31;;;21.72;87.30
62201;BME280;48197;42.732;27.192;2022-08-19T02:15:34;99234.75;;;21.68;87.63
62201;BME280;48197;42.732;27.192;2022-08-19T02:18:00;99232.47;;;21.66;87.77
62201;BME280;48197;42.732;27.192;2022-08-19T02:20:27;99231.91;;;21.62;88.39
62201;BME280;48197;42.732;27.192;2022-08-19T02:22:53;99243.84;;;21.57;89.13
62201;BME280;48197;42.732;27.192;2022-08-19T02:25:19;99239.69;;;21.52;90.05
62201;BME280;48197;42.732;27.192;2022-08-19T02:27:46;99240.41;;;21.47;90.61
62201;BME280;48197;42.732;27.192;2022-08-19T02:30:13;99231.88;;;21.41;91.75
62201;BME280;48197;42.732;27.192;2022-08-19T02:32:42;99232.19;;;21.29;92.87
62201;BME280;48197;42.732;27.192;2022-08-19T02:35:08;99233.97;;;21.26;92.96
62201;BME280;48197;42.732;27.192;2022-08-19T02:37:35;99238.03;;;21.25;93.22
62201;BME280;48197;42.732;27.192;2022-08-19T02:40:20;99226.38;;;21.32;92.45
62201;BME280;48197;42.732;27.192;2022-08-19T02:42:47;99231.56;;;21.39;91.32
62201;BME280;48197;42.732;27.192;2022-08-19T02:45:13;99241.38;;;21.44;90.43
62201;BME280;48197;42.732;27.192;2022-08-19T02:47:41;99240.69;;;21.49;89.34
62201;BME280;48197;42.732;27.192;2022-08-19T02:50:08;99239.41;;;21.50;89.52
62201;BME280;48197;42.732;27.192;2022-08-19T02:52:34;99236.88;;;21.52;89.87
62201;BME280;48197;42.732;27.192;2022-08-19T02:55:01;99241.66;;;21.46;89.72
62201;BME280;48197;42.732;27.192;2022-08-19T02:57:29;99236.53;;;21.45;91.04
62201;BME280;48197;42.732;27.192;2022-08-19T02:59:57;99247.19;;;21.40;91.61
62201;BME280;48197;42.732;27.192;2022-08-19T03:02:23;99245.63;;;21.39;91.97
62201;BME280;48197;42.732;27.192;2022-08-19T03:04:50;99249.44;;;21.36;92.71
62201;BME280;48197;42.732;27.192;2022-08-19T03:07:17;99250.41;;;21.33;92.76
62201;BME280;48197;42.732;27.192;2022-08-19T03:09:44;99247.59;;;21.33;92.68
62201;BME280;48197;42.732;27.192;2022-08-19T03:12:11;99248.94;;;21.38;91.58
62201;BME280;48197;42.732;27.192;2022-08-19T03:14:38;99253.69;;;21.47;90.34
62201;BME280;48197;42.732;27.192;2022-08-19T03:17:05;99250.38;;;21.48;89.98
62201;BME280;48197;42.732;27.192;2022-08-19T03:19:31;99250.66;;;21.50;89.76
62201;BME280;48197;42.732;27.192;2022-08-19T03:21:57;99247.06;;;21.50;89.60
62201;BME280;48197;42.732;27.192;2022-08-19T03:24:24;99255.03;;;21.51;89.34
62201;BME280;48197;42.732;27.192;2022-08-19T03:26:52;99241.72;;;21.52;89.22
62201;BME280;48197;42.732;27.192;2022-08-19T03:29:21;99249.88;;;21.50;90.13
62201;BME280;48197;42.732;27.192;2022-08-19T03:31:48;99265.22;;;21.49;90.98
62201;BME280;48197;42.732;27.192;2022-08-19T03:34:18;99263.84;;;21.44;91.35
62201;BME280;48197;42.732;27.192;2022-08-19T03:36:45;99269.19;;;21.42;91.58
62201;BME280;48197;42.732;27.192;2022-08-19T03:39:13;99259.69;;;21.39;91.89
62201;BME280;48197;42.732;27.192;2022-08-19T03:41:40;99267.19;;;21.43;91.95
62201;BME280;48197;42.732;27.192;2022-08-19T03:44:07;99263.25;;;21.40;92.78
62201;BME280;48197;42.732;27.192;2022-08-19T03:46:34;99266.69;;;21.29;93.42
62201;BME280;48197;42.732;27.192;2022-08-19T03:49:02;99267.19;;;21.43;93.38
62201;BME280;48197;42.732;27.192;2022-08-19T03:51:37;99272.81;;;21.43;93.76
62201;BME280;48197;42.732;27.192;2022-08-19T03:54:05;99282.09;;;21.49;93.68
62201;BME280;48197;42.732;27.192;2022-08-19T03:56:33;99282.84;;;21.49;94.14
62201;BME280;48197;42.732;27.192;2022-08-19T03:59:01;99280.09;;;21.55;94.21
62201;BME280;48197;42.732;27.192;2022-08-19T04:01:28;99290.50;;;21.69;93.94
62201;BME280;48197;42.732;27.192;2022-08-19T04:03:59;99291.28;;;21.70;93.86
62201;BME280;48197;42.732;27.192;2022-08-19T04:06:27;99289.38;;;21.61;94.51
62201;BME280;48197;42.732;27.192;2022-08-19T04:08:54;99292.91;;;21.56;95.64
62201;BME280;48197;42.732;27.192;2022-08-19T04:11:24;99298.81;;;21.58;95.57
62201;BME280;48197;42.732;27.192;2022-08-19T04:13:52;99298.66;;;21.67;95.38
62201;BME280;48197;42.732;27.192;2022-08-19T04:16:19;99308.53;;;21.77;94.79
62201;BME280;48197;42.732;27.192;2022-08-19T04:18:46;99300.38;;;21.79;94.75
62201;BME280;48197;42.732;27.192;2022-08-19T04:21:19;99305.28;;;21.85;94.60
62201;BME280;48197;42.732;27.192;2022-08-19T04:23:46;99303.31;;;21.91;94.67
62201;BME280;48197;42.732;27.192;2022-08-19T04:26:23;99311.53;;;21.94;94.16
62201;BME280;48197;42.732;27.192;2022-08-19T04:28:50;99311.63;;;22.00;94.48
62201;BME280;48197;42.732;27.192;2022-08-19T04:31:19;99308.56;;;22.03;94.50
62201;BME280;48197;42.732;27.192;2022-08-19T04:33:45;99310.97;;;22.11;94.38
62201;BME280;48197;42.732;27.192;2022-08-19T04:36:19;99309.06;;;22.22;94.28
62201;BME280;48197;42.732;27.192;2022-08-19T04:38:48;99317.44;;;22.37;93.74
62201;BME280;48197;42.732;27.192;2022-08-19T04:41:16;99318.09;;;22.53;93.42
62201;BME280;48197;42.732;27.192;2022-08-19T04:44:01;99297.28;;;22.71;92.51
62201;BME280;48197;42.732;27.192;2022-08-19T04:46:28;99301.22;;;22.84;91.75
62201;BME280;48197;42.732;27.192;2022-08-19T04:48:56;99300.31;;;22.99;90.85
62201;BME280;48197;42.732;27.192;2022-08-19T04:51:22;99303.50;;;23.12;90.38
62201;BME280;48197;42.732;27.192;2022-08-19T04:53:50;99298.22;;;23.26;89.99
62201;BME280;48197;42.732;27.192;2022-08-19T04:56:17;99300.59;;;23.38;89.62
62201;BME280;48197;42.732;27.192;2022-08-19T04:58:46;99295.03;;;23.50;89.07
62201;BME280;48197;42.732;27.192;2022-08-19T05:01:18;99295.38;;;23.63;88.28
62201;BME280;48197;42.732;27.192;2022-08-19T05:03:45;99304.44;;;23.78;88.42
62201;BME280;48197;42.732;27.192;2022-08-19T05:06:12;99302.19;;;23.94;87.64
62201;BME280;48197;42.732;27.192;2022-08-19T05:08:40;99302.50;;;24.13;87.63
62201;BME280;48197;42.732;27.192;2022-08-19T05:11:13;99298.47;;;24.36;86.59
62201;BME280;48197;42.732;27.192;2022-08-19T05:13:40;99300.09;;;24.65;85.37
62201;BME280;48197;42.732;27.192;2022-08-19T05:16:08;99310.34;;;24.85;84.90
62201;BME280;48197;42.732;27.192;2022-08-19T05:18:35;99303.69;;;25.00;83.10
62201;BME280;48197;42.732;27.192;2022-08-19T05:21:21;99310.38;;;25.31;80.35
62201;BME280;48197;42.732;27.192;2022-08-19T05:24:06;99299.25;;;25.61;77.13
62201;BME280;48197;42.732;27.192;2022-08-19T05:26:36;99304.56;;;25.81;75.03
62201;BME280;48197;42.732;27.192;2022-08-19T05:29:03;99301.44;;;25.96;74.66
62201;BME280;48197;42.732;27.192;2022-08-19T05:31:30;99302.41;;;26.10;74.28
62201;BME280;48197;42.732;27.192;2022-08-19T05:33:57;99299.50;;;26.21;71.73
62201;BME280;48197;42.732;27.192;2022-08-19T05:36:26;99311.00;;;26.35;71.01
62201;BME280;48197;42.732;27.192;2022-08-19T05:38:53;99304.75;;;26.47;70.08
62201;BME280;48197;42.732;27.192;2022-08-19T05:41:19;99310.81;;;26.68;69.28
62201;BME280;48197;42.732;27.192;2022-08-19T05:43:47;99304.03;;;26.83;66.47
62201;BME280;48197;42.732;27.192;2022-08-19T05:46:22;99315.03;;;26.92;64.74
62201;BME280;48197;42.732;27.192;2022-08-19T05:48:49;99316.94;;;27.08;63.37
62201;BME280;48197;42.732;27.192;2022-08-19T05:51:16;99317.34;;;27.24;61.13
62201;BME280;48197;42.732;27.192;2022-08-19T05:53:43;99306.53;;;27.47;60.00
62201;BME280;48197;42.732;27.192;2022-08-19T05:56:14;99306.75;;;27.74;58.65
62201;BME280;48197;42.732;27.192;2022-08-19T05:58:45;99313.28;;;27.93;57.37
62201;BME280;48197;42.732;27.192;2022-08-19T06:01:13;99309.66;;;28.12;55.91
62201;BME280;48197;42.732;27.192;2022-08-19T06:06:43;99304.44;;;28.73;52.88
62201;BME280;48197;42.732;27.192;2022-08-19T06:09:10;99299.47;;;29.05;52.83
62201;BME280;48197;42.732;27.192;2022-08-19T06:11:41;99299.66;;;29.40;52.34
62201;BME280;48197;42.732;27.192;2022-08-19T06:14:18;99298.47;;;29.62;50.18
62201;BME280;48197;42.732;27.192;2022-08-19T06:19:51;99284.13;;;29.81;49.12
62201;BME280;48197;42.732;27.192;2022-08-19T06:34:39;99287.72;;;29.68;49.98
62201;BME280;48197;42.732;27.192;2022-08-19T06:37:08;99288.06;;;30.04;49.22
62201;BME280;48197;42.732;27.192;2022-08-19T06:39:36;99285.94;;;30.52;48.68
62201;BME280;48197;42.732;27.192;2022-08-19T06:42:05;99290.47;;;30.48;46.82
62201;BME280;48197;42.732;27.192;2022-08-19T06:44:33;99285.44;;;30.27;47.38
62201;BME280;48197;42.732;27.192;2022-08-19T06:47:03;99296.28;;;30.42;47.50
62201;BME280;48197;42.732;27.192;2022-08-19T06:49:36;99282.25;;;30.65;46.42
62201;BME280;48197;42.732;27.192;2022-08-19T06:52:13;99276.63;;;30.18;47.08
62201;BME280;48197;42.732;27.192;2022-08-19T06:54:43;99283.19;;;30.12;47.56
62201;BME280;48197;42.732;27.192;2022-08-19T06:57:09;99282.28;;;30.31;47.34
62201;BME280;48197;42.732;27.192;2022-08-19T07:02:53;99281.94;;;30.69;46.54
62201;BME280;48197;42.732;27.192;2022-08-19T07:05:26;99285.50;;;30.48;45.87
62201;BME280;48197;42.732;27.192;2022-08-19T07:08:15;99273.28;;;30.27;46.42
62201;BME280;48197;42.732;27.192;2022-08-19T07:13:56;99261.09;;;30.05;46.86
62201;BME280;48197;42.732;27.192;2022-08-19T07:16:24;99265.16;;;29.97;47.31
62201;BME280;48197;42.732;27.192;2022-08-19T07:19:28;99268.66;;;30.92;46.01
62201;BME280;48197;42.732;27.192;2022-08-19T07:21:55;99259.59;;;31.02;44.34
62201;BME280;48197;42.732;27.192;2022-08-19T07:24:23;99266.34;;;31.69;44.06
62201;BME280;48197;42.732;27.192;2022-08-19T07:26:54;99266.16;;;32.19;42.71
62201;BME280;48197;42.732;27.192;2022-08-19T07:29:30;99253.50;;;32.66;41.91
62201;BME280;48197;42.732;27.192;2022-08-19T07:31:59;99255.06;;;33.13;40.99
62201;BME280;48197;42.732;27.192;2022-08-19T07:34:27;99253.19;;;33.80;40.82
62201;BME280;48197;42.732;27.192;2022-08-19T07:37:01;99249.91;;;34.64;38.27
62201;BME280;48197;42.732;27.192;2022-08-19T07:39:30;99260.00;;;34.40;38.08
62201;BME280;48197;42.732;27.192;2022-08-19T07:41:58;99250.09;;;34.66;38.46
62201;BME280;48197;42.732;27.192;2022-08-19T07:47:27;99259.13;;;34.22;38.07
62201;BME280;48197;42.732;27.192;2022-08-19T07:49:56;99252.38;;;34.35;37.95
62201;BME280;48197;42.732;27.192;2022-08-19T07:52:59;99256.41;;;34.32;38.33
62201;BME280;48197;42.732;27.192;2022-08-19T07:55:31;99248.91;;;34.69;37.66
62201;BME280;48197;42.732;27.192;2022-08-19T07:58:00;99253.53;;;34.65;36.81
62201;BME280;48197;42.732;27.192;2022-08-19T08:00:31;99249.16;;;34.56;37.29
62201;BME280;48197;42.732;27.192;2022-08-19T08:02:59;99261.22;;;34.87;37.52
62201;BME280;48197;42.732;27.192;2022-08-19T08:08:31;99266.81;;;35.45;36.68
62201;BME280;48197;42.732;27.192;2022-08-19T08:10:58;99264.13;;;35.65;35.66
62201;BME280;48197;42.732;27.192;2022-08-19T08:13:25;99264.78;;;35.90;34.87
62201;BME280;48197;42.732;27.192;2022-08-19T08:18:59;99267.03;;;35.22;35.84
62201;BME280;48197;42.732;27.192;2022-08-19T08:21:38;99257.09;;;35.58;35.34
62201;BME280;48197;42.732;27.192;2022-08-19T08:24:05;99263.53;;;35.49;34.79
62201;BME280;48197;42.732;27.192;2022-08-19T08:26:31;99268.84;;;35.10;35.34
62201;BME280;48197;42.732;27.192;2022-08-19T08:28:58;99267.56;;;35.28;36.22
62201;BME280;48197;42.732;27.192;2022-08-19T08:31:33;99267.34;;;35.69;34.93
62201;BME280;48197;42.732;27.192;2022-08-19T08:37:18;99262.56;;;35.46;34.66
62201;BME280;48197;42.732;27.192;2022-08-19T08:39:46;99273.66;;;35.07;34.94
62201;BME280;48197;42.732;27.192;2022-08-19T08:42:18;99263.19;;;35.02;35.85
62201;BME280;48197;42.732;27.192;2022-08-19T08:44:48;99266.41;;;35.06;35.62
62201;BME280;48197;42.732;27.192;2022-08-19T08:59:35;99270.28;;;34.03;37.55
62201;BME280;48197;42.732;27.192;2022-08-19T09:05:06;99260.66;;;34.56;37.38
62201;BME280;48197;42.732;27.192;2022-08-19T09:07:43;99272.16;;;34.23;36.96
62201;BME280;48197;42.732;27.192;2022-08-19T09:25:27;99258.97;;;35.03;36.41
62201;BME280;48197;42.732;27.192;2022-08-19T09:27:53;99259.31;;;35.07;35.73
62201;BME280;48197;42.732;27.192;2022-08-19T09:30:22;99273.88;;;33.55;37.22
62201;BME280;48197;42.732;27.192;2022-08-19T10:01:30;99247.47;;;35.03;34.20
62201;BME280;48197;42.732;27.192;2022-08-19T10:04:00;99247.63;;;35.30;34.18
62201;BME280;48197;42.732;27.192;2022-08-19T10:06:28;99247.38;;;35.53;33.41
62201;BME280;48197;42.732;27.192;2022-08-19T10:08:58;99262.91;;;35.33;32.60
62201;BME280;48197;42.732;27.192;2022-08-19T10:11:26;99261.78;;;35.11;33.33
62201;BME280;48197;42.732;27.192;2022-08-19T10:13:53;99250.44;;;35.38;33.89
62201;BME280;48197;42.732;27.192;2022-08-19T10:16:21;99258.38;;;35.47;32.57
62201;BME280;48197;42.732;27.192;2022-08-19T10:18:50;99252.94;;;35.16;33.15
62201;BME280;48197;42.732;27.192;2022-08-19T10:21:22;99247.81;;;35.32;33.15
62201;BME280;48197;42.732;27.192;2022-08-19T10:23:51;99243.31;;;35.39;33.08
62201;BME280;48197;42.732;27.192;2022-08-19T10:26:21;99242.75;;;35.41;33.40
62201;BME280;48197;42.732;27.192;2022-08-19T10:28:49;99251.44;;;35.33;33.49
62201;BME280;48197;42.732;27.192;2022-08-19T10:31:18;99244.09;;;34.97;33.74
62201;BME280;48197;42.732;27.192;2022-08-19T10:33:50;99260.63;;;34.31;33.99
62201;BME280;48197;42.732;27.192;2022-08-19T10:36:17;99255.19;;;34.43;34.13
62201;BME280;48197;42.732;27.192;2022-08-19T10:38:46;99239.19;;;34.65;32.82
62201;BME280;48197;42.732;27.192;2022-08-19T10:41:16;99251.66;;;34.60;33.12
62201;BME280;48197;42.732;27.192;2022-08-19T10:43:57;99243.47;;;34.81;33.96
62201;BME280;48197;42.732;27.192;2022-08-19T10:46:25;99256.97;;;35.13;32.96
62201;BME280;48197;42.732;27.192;2022-08-19T10:48:53;99239.75;;;35.31;31.84
62201;BME280;48197;42.732;27.192;2022-08-19T10:51:20;99250.25;;;35.36;32.71
62201;BME280;48197;42.732;27.192;2022-08-19T10:54:05;99252.28;;;35.61;31.76
62201;BME280;48197;42.732;27.192;2022-08-19T10:56:33;99238.69;;;35.78;32.10
62201;BME280;48197;42.732;27.192;2022-08-19T10:59:32;99237.75;;;35.76;31.72
62201;BME280;48197;42.732;27.192;2022-08-19T11:04:50;99242.53;;;33.72;33.56
62201;BME280;48197;42.732;27.192;2022-08-19T11:07:20;99245.84;;;34.42;33.04
62201;BME280;48197;42.732;27.192;2022-08-19T11:09:47;99242.72;;;35.23;32.27
62201;BME280;48197;42.732;27.192;2022-08-19T11:12:14;99245.44;;;35.73;31.03
62201;BME280;48197;42.732;27.192;2022-08-19T11:14:42;99244.06;;;35.92;31.32
62201;BME280;48197;42.732;27.192;2022-08-19T11:17:18;99243.78;;;36.42;30.86
62201;BME280;48197;42.732;27.192;2022-08-19T11:19:46;99235.88;;;37.16;30.37
62201;BME280;48197;42.732;27.192;2022-08-19T11:22:50;99245.56;;;36.65;29.52
62201;BME280;48197;42.732;27.192;2022-08-19T11:25:18;99226.00;;;36.63;29.68
62201;BME280;48197;42.732;27.192;2022-08-19T11:27:45;99239.66;;;36.63;29.06
62201;BME280;48197;42.732;27.192;2022-08-19T11:30:12;99232.44;;;36.81;29.08
62201;BME280;48197;42.732;27.192;2022-08-19T11:32:40;99221.09;;;36.93;29.26
62201;BME280;48197;42.732;27.192;2022-08-19T11:35:08;99218.13;;;37.30;28.90
62201;BME280;48197;42.732;27.192;2022-08-19T11:37:36;99215.88;;;37.38;28.95
62201;BME280;48197;42.732;27.192;2022-08-19T11:40:04;99218.34;;;36.38;29.67
62201;BME280;48197;42.732;27.192;2022-08-19T11:42:31;99229.53;;;35.20;31.18
62201;BME280;48197;42.732;27.192;2022-08-19T11:45:16;99217.63;;;35.24;31.74
62201;BME280;48197;42.732;27.192;2022-08-19T11:47:43;99216.38;;;36.41;30.92
62201;BME280;48197;42.732;27.192;2022-08-19T11:50:09;99204.50;;;37.40;28.89
62201;BME280;48197;42.732;27.192;2022-08-19T11:52:36;99198.53;;;38.16;27.00
62201;BME280;48197;42.732;27.192;2022-08-19T11:55:03;99194.66;;;38.74;26.66
62201;BME280;48197;42.732;27.192;2022-08-19T11:57:29;99196.06;;;39.37;26.02
62201;BME280;48197;42.732;27.192;2022-08-19T11:59:56;99202.56;;;39.59;25.96
62201;BME280;48197;42.732;27.192;2022-08-19T12:02:25;99193.41;;;39.63;25.78
62201;BME280;48197;42.732;27.192;2022-08-19T12:05:28;99197.66;;;39.29;25.88
62201;BME280;48197;42.732;27.192;2022-08-19T12:07:58;99196.50;;;39.44;25.76
62201;BME280;48197;42.732;27.192;2022-08-19T12:10:24;99195.56;;;39.19;25.87
62201;BME280;48197;42.732;27.192;2022-08-19T12:12:51;99186.81;;;38.65;26.11
62201;BME280;48197;42.732;27.192;2022-08-19T12:15:17;99192.97;;;38.39;26.41
62201;BME280;48197;42.732;27.192;2022-08-19T12:17:44;99187.00;;;38.47;26.19
62201;BME280;48197;42.732;27.192;2022-08-19T12:20:14;99188.63;;;39.13;26.07
62201;BME280;48197;42.732;27.192;2022-08-19T12:22:43;99181.44;;;39.57;25.40
62201;BME280;48197;42.732;27.192;2022-08-19T12:25:10;99181.13;;;38.98;25.78
62201;BME280;48197;42.732;27.192;2022-08-19T12:28:14;99187.81;;;37.09;27.81
62201;BME280;48197;42.732;27.192;2022-08-19T12:30:42;99195.56;;;35.61;29.21
62201;BME280;48197;42.732;27.192;2022-08-19T12:33:08;99182.66;;;34.75;30.38
62201;BME280;48197;42.732;27.192;2022-08-19T12:35:38;99173.34;;;35.79;29.08
62201;BME280;48197;42.732;27.192;2022-08-19T12:38:05;99167.81;;;37.31;27.34
62201;BME280;48197;42.732;27.192;2022-08-19T12:40:32;99168.38;;;38.91;25.73
62201;BME280;48197;42.732;27.192;2022-08-19T12:42:59;99164.25;;;39.71;24.84
62201;BME280;48197;42.732;27.192;2022-08-19T12:45:27;99163.75;;;40.19;23.99
62201;BME280;48197;42.732;27.192;2022-08-19T12:47:57;99171.44;;;40.86;23.42
62201;BME280;48197;42.732;27.192;2022-08-19T12:50:24;99169.34;;;41.12;22.93
62201;BME280;48197;42.732;27.192;2022-08-19T12:52:50;99171.00;;;41.03;22.72
62201;BME280;48197;42.732;27.192;2022-08-19T12:55:22;99169.22;;;39.47;24.20
62201;BME280;48197;42.732;27.192;2022-08-19T13:10:20;99160.19;;;38.35;25.15
62201;BME280;48197;42.732;27.192;2022-08-19T13:12:49;99165.38;;;38.89;24.58
62201;BME280;48197;42.732;27.192;2022-08-19T13:15:16;99163.91;;;39.43;23.93
62201;BME280;48197;42.732;27.192;2022-08-19T13:17:49;99166.88;;;40.00;23.08
62201;BME280;48197;42.732;27.192;2022-08-19T13:20:17;99168.41;;;40.13;22.68
62201;BME280;48197;42.732;27.192;2022-08-19T13:22:45;99173.41;;;39.89;22.59
62201;BME280;48197;42.732;27.192;2022-08-19T13:25:12;99180.84;;;38.94;23.37
62201;BME280;48197;42.732;27.192;2022-08-19T13:27:43;99185.78;;;37.02;25.27
62201;BME280;48197;42.732;27.192;2022-08-19T13:30:15;99176.63;;;35.58;26.87
62201;BME280;48197;42.732;27.192;2022-08-19T13:33:04;99175.25;;;35.32;28.35
62201;BME280;48197;42.732;27.192;2022-08-19T13:35:38;99184.25;;;35.46;28.11
62201;BME280;48197;42.732;27.192;2022-08-19T13:38:05;99175.72;;;37.11;26.65
62201;BME280;48197;42.732;27.192;2022-08-19T13:40:32;99175.81;;;37.81;27.58
62201;BME280;48197;42.732;27.192;2022-08-19T13:43:03;99182.09;;;36.63;30.11
62201;BME280;48197;42.732;27.192;2022-08-19T13:45:30;99181.03;;;35.76;32.14
62201;BME280;48197;42.732;27.192;2022-08-19T13:48:02;99175.44;;;36.70;31.57
62201;BME280;48197;42.732;27.192;2022-08-19T13:50:32;99168.19;;;37.95;30.35
62201;BME280;48197;42.732;27.192;2022-08-19T13:53:00;99160.47;;;38.70;29.54
62201;BME280;48197;42.732;27.192;2022-08-19T13:55:27;99167.97;;;38.85;29.24
62201;BME280;48197;42.732;27.192;2022-08-19T13:57:54;99164.47;;;38.87;29.16
62201;BME280;48197;42.732;27.192;2022-08-19T14:00:21;99164.47;;;37.44;31.32
62201;BME280;48197;42.732;27.192;2022-08-19T14:02:50;99169.13;;;36.91;32.47
62201;BME280;48197;42.732;27.192;2022-08-19T14:05:17;99165.97;;;37.55;31.76
62201;BME280;48197;42.732;27.192;2022-08-19T14:07:44;99164.50;;;38.24;30.49
62201;BME280;48197;42.732;27.192;2022-08-19T14:10:11;99166.81;;;38.06;30.60
62201;BME280;48197;42.732;27.192;2022-08-19T14:12:38;99166.84;;;37.96;31.24
62201;BME280;48197;42.732;27.192;2022-08-19T14:15:05;99168.72;;;37.63;31.27
62201;BME280;48197;42.732;27.192;2022-08-19T14:17:33;99164.44;;;37.05;32.21
62201;BME280;48197;42.732;27.192;2022-08-19T14:20:01;99164.09;;;36.82;33.32
62201;BME280;48197;42.732;27.192;2022-08-19T14:22:30;99180.78;;;36.36;33.95
62201;BME280;48197;42.732;27.192;2022-08-19T14:24:57;99167.38;;;35.94;34.84
62201;BME280;48197;42.732;27.192;2022-08-19T14:30:32;99178.88;;;35.32;35.02
62201;BME280;48197;42.732;27.192;2022-08-19T14:33:00;99177.03;;;35.27;35.95
62201;BME280;48197;42.732;27.192;2022-08-19T14:35:27;99181.94;;;35.09;35.88
62201;BME280;48197;42.732;27.192;2022-08-19T14:37:54;99178.44;;;35.18;36.06
62201;BME280;48197;42.732;27.192;2022-08-19T14:40:22;99187.28;;;35.13;36.22
62201;BME280;48197;42.732;27.192;2022-08-19T14:42:53;99183.88;;;35.14;35.83
62201;BME280;48197;42.732;27.192;2022-08-19T14:45:25;99184.97;;;34.94;36.21
62201;BME280;48197;42.732;27.192;2022-08-19T14:47:53;99189.50;;;34.80;36.27
62201;BME280;48197;42.732;27.192;2022-08-19T14:50:20;99183.31;;;34.41;37.01
62201;BME280;48197;42.732;27.192;2022-08-19T14:52:47;99189.13;;;33.92;37.85
62201;BME280;48197;42.732;27.192;2022-08-19T14:55:16;99183.31;;;32.96;39.34
62201;BME280;48197;42.732;27.192;2022-08-19T14:57:43;99188.97;;;32.04;41.46
62201;BME280;48197;42.732;27.192;2022-08-19T15:00:11;99189.00;;;31.31;43.27
62201;BME280;48197;42.732;27.192;2022-08-19T15:02:39;99182.31;;;30.92;44.43
62201;BME280;48197;42.732;27.192;2022-08-19T15:05:06;99175.84;;;31.28;44.15
62201;BME280;48197;42.732;27.192;2022-08-19T15:07:32;99177.44;;;31.73;43.12
62201;BME280;48197;42.732;27.192;2022-08-19T15:09:59;99180.44;;;31.67;43.26